Time;durP1;ratioP1;P1;durP2;ratioP2;P2;SDS_P1;SDS_P2;PMS_P1;PMS_P2;Temp;Humidity;BMP_temperature;BMP_pressure;BME280_temperature;BME280_humidity;BME280_pressure;Samples;Min_cycle;Max_cycle;Signal;HPM_P1;HPM_P2
2023/10/21 00:01:36;;;;;;;;;;;14.50;99.90;;;;;;2617914;47;19954;-76
2023/10/21 00:04:06;;;;;;;;;;;14.50;99.90;;;;;;2616872;54;19946;-76
2023/10/21 00:06:35;;;;;;;;;;;14.50;99.90;;;;;;2617589;47;19954;-75
2023/10/21 00:09:08;;;;;;;;;;;14.50;99.90;;;;;;2617570;54;19938;-75
2023/10/21 00:11:37;;;;;;;;;;;14.50;99.90;;;;;;2622194;47;19947;-76
2023/10/21 00:14:08;;;;;;;;;;;14.50;99.90;;;;;;2619617;54;19953;-75
2023/10/21 00:16:37;;;;;;;;;;;14.50;99.90;;;;;;2619861;47;19946;-75
2023/10/21 00:19:07;;;;;;;;;;;14.50;99.90;;;;;;2622054;47;19946;-75
2023/10/21 00:21:37;;;;;;;;;;;14.50;99.90;;;;;;2621930;47;19947;-75
2023/10/21 00:24:10;;;;;;;;;;;14.50;99.90;;;;;;2618849;48;19939;-75
2023/10/21 00:26:47;;;;;;;;;;;14.50;99.90;;;;;;2617879;47;19946;-76
2023/10/21 00:29:17;;;;;;;;;;;14.60;99.90;;;;;;2617789;54;19946;-74
2023/10/21 00:31:47;;;;;;;;;;;14.60;99.90;;;;;;2618038;47;19946;-75
2023/10/21 00:34:17;;;;;;;;;;;14.60;99.90;;;;;;2616715;47;19947;-76
2023/10/21 00:36:46;;;;;;;;;;;14.60;99.90;;;;;;2618335;47;20477;-76
2023/10/21 00:39:19;;;;;;;;;;;14.50;99.90;;;;;;2620507;47;19945;-75
2023/10/21 00:41:49;;;;;;;;;;;14.50;99.90;;;;;;2617654;47;19947;-76
2023/10/21 00:44:19;;;;;;;;;;;14.60;99.90;;;;;;2616764;47;20030;-76
2023/10/21 00:46:49;;;;;;;;;;;14.50;99.90;;;;;;2616966;39;20365;-76
2023/10/21 00:49:18;;;;;;;;;;;14.50;99.90;;;;;;2617602;47;19939;-74
2023/10/21 00:51:49;;;;;;;;;;;14.60;99.90;;;;;;2617423;47;19946;-75
2023/10/21 00:54:21;;;;;;;;;;;14.60;99.90;;;;;;2616437;47;19938;-75
2023/10/21 00:56:51;;;;;;;;;;;14.50;99.90;;;;;;2616425;54;19954;-76
2023/10/21 00:59:21;;;;;;;;;;;14.50;99.90;;;;;;2617011;54;19946;-75
2023/10/21 01:01:51;;;;;;;;;;;14.50;99.90;;;;;;2617394;47;19953;-75
2023/10/21 01:04:21;;;;;;;;;;;14.50;99.90;;;;;;2616743;47;19946;-75
2023/10/21 01:06:53;;;;;;;;;;;14.50;99.90;;;;;;2617659;47;20083;-76
2023/10/21 01:09:27;;;;;;;;;;;14.50;99.90;;;;;;2617462;47;19946;-75
2023/10/21 01:11:57;;;;;;;;;;;14.50;99.90;;;;;;2617310;54;20496;-76
2023/10/21 01:14:26;;;;;;;;;;;14.50;99.90;;;;;;2615726;46;20092;-75
2023/10/21 01:16:56;;;;;;;;;;;14.50;99.90;;;;;;2617374;47;20525;-75
2023/10/21 01:19:25;;;;;;;;;;;14.50;99.90;;;;;;2617049;54;20446;-75
2023/10/21 01:21:56;;;;;;;;;;;14.50;99.90;;;;;;2617362;54;19939;-75
2023/10/21 01:24:29;;;;;;;;;;;14.50;99.90;;;;;;2616873;54;19947;-76
2023/10/21 01:26:58;;;;;;;;;;;14.50;99.90;;;;;;2617828;47;19962;-76
2023/10/21 01:29:28;;;;;;;;;;;14.50;99.90;;;;;;2617899;39;20373;-77
2023/10/21 01:31:58;;;;;;;;;;;14.50;99.90;;;;;;2618337;39;20384;-76
2023/10/21 01:34:27;;;;;;;;;;;14.50;99.90;;;;;;2617214;54;19991;-75
2023/10/21 01:36:59;;;;;;;;;;;14.50;99.90;;;;;;2617904;46;19939;-76
2023/10/21 01:39:32;;;;;;;;;;;14.50;99.90;;;;;;2618264;54;19942;-76
2023/10/21 01:42:02;;;;;;;;;;;14.50;99.90;;;;;;2618171;47;19946;-76
2023/10/21 01:44:32;;;;;;;;;;;14.50;99.90;;;;;;2617839;54;19947;-76
2023/10/21 01:47:01;;;;;;;;;;;14.50;99.90;;;;;;2618821;47;20398;-76
2023/10/21 01:49:31;;;;;;;;;;;14.50;99.90;;;;;;2618699;39;20347;-76
2023/10/21 01:52:01;;;;;;;;;;;14.50;99.90;;;;;;2618347;47;19938;-76
2023/10/21 01:54:33;;;;;;;;;;;14.50;99.90;;;;;;2617640;54;19947;-76
2023/10/21 01:57:03;;;;;;;;;;;14.50;99.90;;;;;;2617411;54;19959;-75
2023/10/21 01:59:33;;;;;;;;;;;14.50;99.90;;;;;;2617357;46;19950;-74
2023/10/21 02:02:03;;;;;;;;;;;14.50;99.90;;;;;;2617946;54;19946;-75
2023/10/21 02:04:32;;;;;;;;;;;14.50;99.90;;;;;;2617178;54;20072;-77
2023/10/21 02:07:02;;;;;;;;;;;14.50;99.90;;;;;;2618300;54;19938;-75
2023/10/21 02:09:34;;;;;;;;;;;14.50;99.90;;;;;;2617782;46;19945;-76
2023/10/21 02:12:05;;;;;;;;;;;14.50;99.90;;;;;;2617946;47;19939;-74
2023/10/21 02:14:34;;;;;;;;;;;14.40;99.90;;;;;;2618029;39;20401;-75
2023/10/21 02:17:05;;;;;;;;;;;14.40;99.90;;;;;;2618395;47;19946;-74
2023/10/21 02:19:35;;;;;;;;;;;14.40;99.90;;;;;;2618164;54;19946;-75
2023/10/21 02:22:05;;;;;;;;;;;14.40;99.90;;;;;;2617534;54;19957;-75
2023/10/21 02:24:40;;;;;;;;;;;14.40;99.90;;;;;;2617809;47;19939;-76
2023/10/21 02:27:12;;;;;;;;;;;14.40;99.90;;;;;;2623303;47;19995;-75
2023/10/21 02:29:42;;;;;;;;;;;14.40;99.90;;;;;;2622842;47;19984;-76
2023/10/21 02:32:12;;;;;;;;;;;14.40;99.90;;;;;;2624445;47;19990;-75
2023/10/21 02:34:41;;;;;;;;;;;14.40;99.90;;;;;;2623220;47;19946;-75
2023/10/21 02:37:11;;;;;;;;;;;14.40;99.90;;;;;;2624405;47;20042;-74
2023/10/21 02:39:44;;;;;;;;;;;14.40;99.90;;;;;;2624447;47;19988;-77
2023/10/21 02:42:13;;;;;;;;;;;14.50;99.90;;;;;;2618711;47;19946;-75
2023/10/21 02:44:43;;;;;;;;;;;14.50;99.90;;;;;;2617907;54;19950;-75
2023/10/21 02:47:13;;;;;;;;;;;14.50;99.90;;;;;;2618470;39;20439;-75
2023/10/21 02:49:42;;;;;;;;;;;14.50;99.90;;;;;;2618393;47;19938;-77
2023/10/21 02:52:13;;;;;;;;;;;14.50;99.90;;;;;;2618537;54;19953;-76
2023/10/21 02:54:45;;;;;;;;;;;14.50;99.90;;;;;;2618763;39;20474;-76
2023/10/21 02:57:15;;;;;;;;;;;14.60;99.90;;;;;;2618216;47;19947;-76
2023/10/21 02:59:45;;;;;;;;;;;14.50;99.90;;;;;;2618506;39;20346;-76
2023/10/21 03:02:15;;;;;;;;;;;14.60;99.90;;;;;;2617954;47;19958;-75
2023/10/21 03:04:45;;;;;;;;;;;14.50;99.90;;;;;;2617308;54;19965;-76
2023/10/21 03:07:15;;;;;;;;;;;14.60;99.90;;;;;;2617276;54;19947;-76
2023/10/21 03:09:47;;;;;;;;;;;14.50;99.90;;;;;;2618059;47;19954;-76
2023/10/21 03:12:17;;;;;;;;;;;14.50;99.90;;;;;;2618488;39;20346;-75
2023/10/21 03:14:46;;;;;;;;;;;14.50;99.90;;;;;;2617130;47;20472;-76
2023/10/21 03:17:16;;;;;;;;;;;14.50;99.90;;;;;;2618496;47;20003;-75
2023/10/21 03:19:46;;;;;;;;;;;14.50;99.90;;;;;;2617812;54;19947;-76
2023/10/21 03:22:15;;;;;;;;;;;14.50;99.90;;;;;;2618702;47;19971;-76
2023/10/21 03:24:48;;;;;;;;;;;14.50;99.90;;;;;;2617875;47;19946;-76
2023/10/21 03:27:17;;;;;;;;;;;14.50;99.90;;;;;;2618055;47;19962;-76
2023/10/21 03:29:47;;;;;;;;;;;14.50;99.90;;;;;;2618044;47;19947;-76
2023/10/21 03:32:17;;;;;;;;;;;14.50;99.90;;;;;;2618428;54;19946;-77
2023/10/21 03:34:47;;;;;;;;;;;14.50;99.90;;;;;;2617640;46;19969;-75
2023/10/21 03:37:16;;;;;;;;;;;14.50;99.90;;;;;;2617312;54;19939;-75
2023/10/21 03:39:49;;;;;;;;;;;14.50;99.90;;;;;;2617811;47;19946;-76
2023/10/21 03:42:18;;;;;;;;;;;14.40;99.90;;;;;;2618074;54;20453;-76
2023/10/21 03:44:48;;;;;;;;;;;14.40;99.90;;;;;;2617018;47;19981;-76
2023/10/21 03:47:17;;;;;;;;;;;14.40;99.90;;;;;;2618420;47;20782;-76
2023/10/21 03:49:47;;;;;;;;;;;14.40;99.90;;;;;;2617365;39;20377;-74
2023/10/21 03:52:17;;;;;;;;;;;14.40;99.90;;;;;;2617588;47;19947;-75
2023/10/21 03:54:49;;;;;;;;;;;14.40;99.90;;;;;;2617312;47;19968;-75
2023/10/21 03:57:18;;;;;;;;;;;14.40;99.90;;;;;;2616691;49;19954;-75
2023/10/21 03:59:48;;;;;;;;;;;14.50;99.90;;;;;;2618199;47;19950;-75
2023/10/21 04:02:18;;;;;;;;;;;14.40;99.90;;;;;;2618351;54;19939;-74
2023/10/21 04:04:48;;;;;;;;;;;14.50;99.90;;;;;;2617204;47;19946;-74
2023/10/21 04:07:17;;;;;;;;;;;14.40;99.90;;;;;;2617838;47;19946;-74
2023/10/21 04:09:50;;;;;;;;;;;14.50;99.90;;;;;;2618033;47;19950;-75
2023/10/21 04:12:19;;;;;;;;;;;14.40;99.90;;;;;;2617911;54;19951;-74
2023/10/21 04:14:49;;;;;;;;;;;14.40;99.90;;;;;;2617536;47;19951;-75
2023/10/21 04:36:34;;;;;;;;;;;14.40;99.90;;;;;;2612645;47;20420;-72
2023/10/21 04:39:03;;;;;;;;;;;14.60;99.90;;;;;;2616552;47;19953;-71
2023/10/21 04:41:34;;;;;;;;;;;14.60;99.90;;;;;;2615520;54;19946;-73
2023/10/21 04:44:04;;;;;;;;;;;14.60;99.90;;;;;;2615667;54;19946;-71
2023/10/21 04:46:34;;;;;;;;;;;14.60;99.90;;;;;;2616964;54;19950;-72
2023/10/21 04:49:04;;;;;;;;;;;14.50;99.90;;;;;;2615972;54;19947;-73
2023/10/21 04:51:36;;;;;;;;;;;14.60;99.90;;;;;;2616220;39;20362;-71
2023/10/21 04:54:06;;;;;;;;;;;14.60;99.90;;;;;;2616312;47;19974;-72
2023/10/21 04:56:36;;;;;;;;;;;14.60;99.90;;;;;;2615935;47;19946;-72
2023/10/21 04:59:05;;;;;;;;;;;14.60;99.90;;;;;;2616273;47;19947;-71
2023/10/21 05:01:35;;;;;;;;;;;14.60;99.90;;;;;;2616130;47;19951;-71
2023/10/21 05:04:05;;;;;;;;;;;14.60;99.90;;;;;;2615566;47;19939;-73
2023/10/21 05:06:37;;;;;;;;;;;14.60;99.90;;;;;;2616187;47;19939;-72
2023/10/21 05:09:07;;;;;;;;;;;14.60;99.90;;;;;;2617245;47;20022;-71
2023/10/21 05:11:37;;;;;;;;;;;14.60;99.90;;;;;;2617416;54;19939;-71
2023/10/21 05:14:06;;;;;;;;;;;14.60;99.90;;;;;;2616546;54;19946;-73
2023/10/21 05:16:36;;;;;;;;;;;14.60;99.90;;;;;;2618023;47;19950;-73
2023/10/21 05:19:06;;;;;;;;;;;14.60;99.90;;;;;;2617830;47;19946;-72
2023/10/21 05:21:38;;;;;;;;;;;14.60;99.90;;;;;;2617727;47;19954;-72
2023/10/21 05:24:08;;;;;;;;;;;14.60;99.90;;;;;;2616876;47;19953;-73
2023/10/21 05:26:38;;;;;;;;;;;14.60;99.90;;;;;;2616908;47;19962;-72
2023/10/21 05:29:08;;;;;;;;;;;14.60;99.90;;;;;;2617024;51;19946;-72
2023/10/21 05:31:38;;;;;;;;;;;14.60;99.90;;;;;;2617131;47;20050;-72
2023/10/21 05:34:08;;;;;;;;;;;14.60;99.90;;;;;;2616271;54;19947;-72
2023/10/21 05:36:40;;;;;;;;;;;14.70;99.90;;;;;;2617234;47;19965;-74
2023/10/21 05:39:11;;;;;;;;;;;14.60;99.90;;;;;;2618213;54;19946;-74
2023/10/21 05:41:41;;;;;;;;;;;14.60;99.90;;;;;;2620987;54;19946;-74
2023/10/21 05:44:11;;;;;;;;;;;14.60;99.90;;;;;;2620704;47;19956;-74
2023/10/21 05:46:41;;;;;;;;;;;14.60;99.90;;;;;;2619653;47;19999;-72
2023/10/21 05:49:11;;;;;;;;;;;14.60;99.90;;;;;;2618553;47;19954;-73
2023/10/21 05:51:43;;;;;;;;;;;14.60;99.90;;;;;;2617612;47;19954;-72
2023/10/21 05:54:13;;;;;;;;;;;14.60;99.90;;;;;;2616196;54;19950;-73
2023/10/21 05:56:42;;;;;;;;;;;14.60;99.90;;;;;;2617115;47;19939;-72
2023/10/21 05:59:12;;;;;;;;;;;14.60;99.90;;;;;;2616669;46;20038;-72
2023/10/21 06:01:42;;;;;;;;;;;14.60;99.90;;;;;;2616934;54;19946;-71
2023/10/21 06:04:11;;;;;;;;;;;14.60;99.90;;;;;;2616327;54;19946;-72
2023/10/21 06:06:44;;;;;;;;;;;14.60;99.90;;;;;;2616747;47;19958;-72
2023/10/21 06:09:15;;;;;;;;;;;14.60;99.90;;;;;;2617257;54;19947;-72
2023/10/21 06:11:44;;;;;;;;;;;14.60;99.90;;;;;;2616635;47;19958;-72
2023/10/21 06:14:14;;;;;;;;;;;14.60;99.90;;;;;;2615396;47;19946;-72
2023/10/21 06:16:44;;;;;;;;;;;14.60;99.90;;;;;;2616518;47;19962;-72
2023/10/21 06:19:13;;;;;;;;;;;14.60;99.90;;;;;;2616674;54;19938;-74
2023/10/21 06:21:46;;;;;;;;;;;14.60;99.90;;;;;;2616969;54;19947;-74
2023/10/21 06:24:15;;;;;;;;;;;14.60;99.90;;;;;;2617914;47;19950;-74
2023/10/21 06:26:45;;;;;;;;;;;14.60;99.90;;;;;;2614782;51;19947;-75
2023/10/21 06:29:15;;;;;;;;;;;14.60;99.90;;;;;;2616964;47;19974;-74
2023/10/21 06:31:44;;;;;;;;;;;14.60;99.90;;;;;;2616680;47;19947;-75
2023/10/21 06:34:14;;;;;;;;;;;14.60;99.90;;;;;;2614302;39;20346;-73
2023/10/21 06:36:46;;;;;;;;;;;14.60;99.90;;;;;;2616733;47;19950;-76
2023/10/21 06:39:16;;;;;;;;;;;14.60;99.90;;;;;;2616989;54;19958;-74
2023/10/21 06:41:48;;;;;;;;;;;14.60;99.90;;;;;;2617345;47;19938;-65
2023/10/21 06:44:18;;;;;;;;;;;14.60;99.90;;;;;;2616316;54;19971;-74
2023/10/21 06:46:48;;;;;;;;;;;14.60;99.90;;;;;;2617876;47;19974;-75
2023/10/21 06:49:19;;;;;;;;;;;14.50;99.90;;;;;;2619933;47;19946;-75
2023/10/21 06:51:54;;;;;;;;;;;14.50;99.90;;;;;;2621987;54;19946;-75
2023/10/21 06:54:24;;;;;;;;;;;14.50;99.90;;;;;;2621047;47;19945;-75
2023/10/21 06:56:54;;;;;;;;;;;14.50;99.90;;;;;;2623868;31;20459;-76
2023/10/21 06:59:23;;;;;;;;;;;14.50;99.90;;;;;;2618986;47;19946;-75
2023/10/21 07:01:54;;;;;;;;;;;14.40;99.90;;;;;;2617875;47;19967;-75
2023/10/21 07:04:24;;;;;;;;;;;14.50;99.90;;;;;;2617024;47;19946;-75
2023/10/21 07:06:56;;;;;;;;;;;14.40;99.90;;;;;;2617876;39;20615;-75
2023/10/21 07:09:26;;;;;;;;;;;14.50;99.90;;;;;;2620498;39;20634;-74
2023/10/21 07:11:56;;;;;;;;;;;14.50;99.90;;;;;;2615659;47;19947;-74
2023/10/21 07:14:25;;;;;;;;;;;14.50;99.90;;;;;;2617220;47;19954;-75
2023/10/21 07:16:56;;;;;;;;;;;14.50;99.90;;;;;;2615257;47;19957;-74
2023/10/21 07:19:25;;;;;;;;;;;14.50;99.90;;;;;;2616687;47;19954;-73
2023/10/21 07:21:58;;;;;;;;;;;14.50;99.90;;;;;;2617047;54;19947;-75
2023/10/21 07:24:27;;;;;;;;;;;14.50;99.90;;;;;;2619985;54;19947;-77
2023/10/21 07:26:57;;;;;;;;;;;14.50;99.90;;;;;;2618190;39;20349;-76
2023/10/21 07:29:27;;;;;;;;;;;14.50;99.90;;;;;;2617834;47;19987;-75
2023/10/21 07:31:56;;;;;;;;;;;14.50;99.90;;;;;;2616661;47;19946;-75
2023/10/21 07:34:26;;;;;;;;;;;14.50;99.90;;;;;;2615830;47;19953;-77
2023/10/21 07:36:58;;;;;;;;;;;14.50;99.90;;;;;;2617458;46;19958;-77
2023/10/21 07:39:28;;;;;;;;;;;14.40;99.90;;;;;;2617152;54;19938;-74
2023/10/21 07:41:58;;;;;;;;;;;14.40;99.90;;;;;;2619066;54;19939;-75
2023/10/21 07:44:29;;;;;;;;;;;14.40;99.90;;;;;;2617808;47;20677;-77
2023/10/21 07:46:58;;;;;;;;;;;14.50;99.90;;;;;;2617795;47;20045;-73
2023/10/21 07:49:28;;;;;;;;;;;14.50;99.90;;;;;;2615192;47;20438;-74
2023/10/21 07:52:00;;;;;;;;;;;14.50;99.90;;;;;;2616433;47;19947;-73
2023/10/21 07:54:30;;;;;;;;;;;14.50;99.90;;;;;;2613598;46;19946;-73
2023/10/21 07:57:00;;;;;;;;;;;14.50;99.90;;;;;;2616374;54;19947;-72
2023/10/21 07:59:29;;;;;;;;;;;14.50;99.90;;;;;;2616964;47;20022;-73
2023/10/21 08:01:59;;;;;;;;;;;14.50;99.90;;;;;;2616515;47;19939;-73
2023/10/21 08:04:31;;;;;;;;;;;14.50;99.90;;;;;;2616576;39;20846;-72
2023/10/21 08:07:04;;;;;;;;;;;14.60;99.90;;;;;;2616329;54;20444;-73
2023/10/21 08:09:35;;;;;;;;;;;14.60;99.90;;;;;;2616390;47;19954;-77
2023/10/21 08:12:05;;;;;;;;;;;14.70;99.90;;;;;;2618524;47;20438;-76
2023/10/21 08:14:40;;;;;;;;;;;14.60;99.90;;;;;;2616367;54;20446;-76
2023/10/21 08:17:10;;;;;;;;;;;14.70;99.90;;;;;;2618902;47;19939;-77
2023/10/21 08:19:40;;;;;;;;;;;14.70;99.90;;;;;;2618340;47;19946;-76
2023/10/21 08:22:12;;;;;;;;;;;14.70;99.90;;;;;;2617733;54;20034;-77
2023/10/21 08:24:42;;;;;;;;;;;14.80;99.90;;;;;;2614747;47;19946;-76
2023/10/21 08:27:12;;;;;;;;;;;14.80;99.90;;;;;;2618038;47;19953;-77
2023/10/21 08:29:42;;;;;;;;;;;14.80;99.90;;;;;;2618782;47;19970;-76
2023/10/21 08:32:12;;;;;;;;;;;14.80;99.90;;;;;;2617724;47;19939;-77
2023/10/21 08:34:41;;;;;;;;;;;14.90;99.90;;;;;;2607963;47;19950;-61
2023/10/21 08:37:16;;;;;;;;;;;14.90;99.90;;;;;;2604555;54;19947;-62
2023/10/21 08:39:48;;;;;;;;;;;15.00;99.90;;;;;;2604234;54;19946;-61
2023/10/21 08:42:18;;;;;;;;;;;15.00;99.90;;;;;;2605679;53;19996;-62
2023/10/21 08:44:48;;;;;;;;;;;15.70;99.90;;;;;;2604171;39;20417;-62
2023/10/21 08:47:18;;;;;;;;;;;15.00;99.90;;;;;;2604830;54;19953;-62
2023/10/21 08:49:49;;;;;;;;;;;15.10;99.90;;;;;;2603169;54;20461;-62
2023/10/21 08:52:22;;;;;;;;;;;15.10;99.90;;;;;;2605078;54;19938;-73
2023/10/21 08:54:52;;;;;;;;;;;15.20;99.90;;;;;;2604835;54;19946;-73
2023/10/21 08:57:21;;;;;;;;;;;15.20;99.90;;;;;;2605862;54;19947;-74
2023/10/21 08:59:51;;;;;;;;;;;15.30;99.90;;;;;;2605726;47;19951;-77
2023/10/21 09:02:21;;;;;;;;;;;15.30;99.90;;;;;;2607826;39;20365;-75
2023/10/21 09:04:50;;;;;;;;;;;14.20;99.90;;;;;;2605185;47;19957;-75
2023/10/21 09:07:23;;;;;;;;;;;15.40;99.90;;;;;;2606703;47;19957;-75
2023/10/21 09:09:54;;;;;;;;;;;15.30;99.90;;;;;;2606822;54;19950;-76
2023/10/21 09:12:27;;;;;;;;;;;15.30;99.90;;;;;;2606372;39;20345;-76
2023/10/21 09:14:59;;;;;;;;;;;15.30;99.90;;;;;;2605656;54;20485;-75
2023/10/21 09:17:37;;;;;;;;;;;15.30;99.90;;;;;;2606774;54;19946;-73
2023/10/21 09:20:11;;;;;;;;;;;15.30;99.90;;;;;;2606491;47;19947;-76
2023/10/21 09:22:44;;;;;;;;;;;15.40;99.90;;;;;;2606277;54;19947;-72
2023/10/21 09:25:18;;;;;;;;;;;15.50;99.90;;;;;;2605360;54;19947;-73
2023/10/21 09:27:49;;;;;;;;;;;15.60;99.90;;;;;;2605560;47;19946;-75
2023/10/21 09:30:20;;;;;;;;;;;15.70;99.90;;;;;;2606682;54;19950;-76
2023/10/21 09:32:50;;;;;;;;;;;15.70;99.90;;;;;;2606685;47;19950;-73
2023/10/21 09:35:21;;;;;;;;;;;15.80;99.90;;;;;;2605229;54;19971;-76
2023/10/21 09:37:53;;;;;;;;;;;15.90;99.90;;;;;;2606949;54;19946;-77
2023/10/21 09:40:24;;;;;;;;;;;16.00;99.90;;;;;;2608027;47;19946;-77
2023/10/21 09:42:55;;;;;;;;;;;16.10;99.90;;;;;;2607730;54;19973;-76
2023/10/21 09:45:26;;;;;;;;;;;16.20;99.90;;;;;;2606278;54;19947;-75
2023/10/21 09:47:57;;;;;;;;;;;16.20;99.90;;;;;;2607121;47;19954;-75
2023/10/21 09:50:27;;;;;;;;;;;16.20;99.90;;;;;;2608011;47;19970;-77
2023/10/21 09:53:10;;;;;;;;;;;16.20;99.90;;;;;;2607196;54;19958;-77
2023/10/21 09:58:53;;;;;;;;;;;16.30;99.90;;;;;;2609550;47;20486;-77
2023/10/21 10:01:24;;;;;;;;;;;16.30;99.90;;;;;;2610864;47;19946;-79
2023/10/21 10:03:55;;;;;;;;;;;16.30;99.90;;;;;;2609486;47;19947;-77
2023/10/21 10:06:25;;;;;;;;;;;16.30;99.90;;;;;;2608560;47;19956;-76
2023/10/21 10:09:07;;;;;;;;;;;16.30;99.90;;;;;;2607989;54;19947;-77
2023/10/21 10:11:38;;;;;;;;;;;16.30;99.90;;;;;;2606806;47;19955;-76
2023/10/21 10:14:08;;;;;;;;;;;16.30;99.90;;;;;;2605596;46;19946;-72
2023/10/21 10:16:45;;;;;;;;;;;16.30;99.90;;;;;;2606574;53;20021;-72
2023/10/21 10:19:16;;;;;;;;;;;16.30;99.90;;;;;;2606310;47;19946;-75
2023/10/21 10:21:51;;;;;;;;;;;16.40;99.90;;;;;;2605838;47;19955;-62
2023/10/21 10:24:24;;;;;;;;;;;16.40;99.90;;;;;;2604894;54;19975;-61
2023/10/21 10:26:54;;;;;;;;;;;16.60;99.90;;;;;;2605256;54;19973;-76
2023/10/21 10:29:25;;;;;;;;;;;16.80;99.90;;;;;;2606099;47;19946;-76
2023/10/21 10:32:10;;;;;;;;;;;16.80;99.90;;;;;;2605945;54;19957;-73
2023/10/21 10:34:44;;;;;;;;;;;16.90;99.90;;;;;;2605475;39;20380;-77
2023/10/21 10:37:26;;;;;;;;;;;16.70;99.90;;;;;;2607333;47;19946;-78
2023/10/21 10:39:59;;;;;;;;;;;16.90;99.90;;;;;;2606290;47;19950;-75
2023/10/21 10:42:29;;;;;;;;;;;16.90;99.90;;;;;;2606268;54;19939;-76
2023/10/21 10:44:59;;;;;;;;;;;16.80;99.90;;;;;;2605596;54;20011;-77
2023/10/21 10:47:29;;;;;;;;;;;16.80;99.90;;;;;;2606691;54;19947;-76
2023/10/21 10:50:00;;;;;;;;;;;16.80;99.90;;;;;;2605972;47;19947;-77
2023/10/21 10:52:31;;;;;;;;;;;16.60;99.90;;;;;;2605701;47;20528;-74
2023/10/21 10:55:08;;;;;;;;;;;16.60;99.90;;;;;;2605513;47;20092;-75
2023/10/21 16:57:48;;;;;;;;;;;16.60;99.90;;;;;;2611479;54;19942;-72
2023/10/21 17:00:18;;;;;;;;;;;16.80;99.90;;;;;;2612262;54;19961;-72
2023/10/21 17:02:48;;;;;;;;;;;16.80;99.90;;;;;;2614596;39;20385;-73
2023/10/21 17:05:18;;;;;;;;;;;16.70;99.90;;;;;;2612848;54;20054;-74
2023/10/21 17:07:48;;;;;;;;;;;16.70;99.90;;;;;;2616076;54;19946;-73
2023/10/21 17:10:18;;;;;;;;;;;16.70;99.90;;;;;;2614904;54;20668;-73
2023/10/21 17:12:51;;;;;;;;;;;16.60;99.90;;;;;;2615157;54;19947;-74
2023/10/21 17:15:21;;;;;;;;;;;16.60;99.90;;;;;;2612762;54;19955;-72
2023/10/21 17:17:51;;;;;;;;;;;16.60;99.90;;;;;;2614657;46;20022;-72
2023/10/21 17:20:21;;;;;;;;;;;16.60;99.90;;;;;;2613652;47;19958;-72
2023/10/21 17:22:51;;;;;;;;;;;16.60;99.90;;;;;;2615704;54;19946;-73
2023/10/21 17:25:21;;;;;;;;;;;16.60;99.90;;;;;;2614603;46;20781;-73
2023/10/21 17:27:56;;;;;;;;;;;16.50;99.90;;;;;;2614962;54;19950;-72
2023/10/21 17:30:27;;;;;;;;;;;16.50;99.90;;;;;;2615015;47;19994;-72
2023/10/21 17:32:58;;;;;;;;;;;16.50;99.90;;;;;;2615037;47;19935;-71
2023/10/21 17:35:29;;;;;;;;;;;16.50;99.90;;;;;;2613544;54;19938;-73
2023/10/21 17:37:59;;;;;;;;;;;16.50;99.90;;;;;;2613446;54;19954;-73
2023/10/21 17:40:29;;;;;;;;;;;16.50;99.90;;;;;;2614707;39;20341;-72
2023/10/21 17:43:01;;;;;;;;;;;16.40;99.90;;;;;;2615672;46;19950;-73
2023/10/21 17:45:34;;;;;;;;;;;16.40;99.90;;;;;;2614295;47;19946;-72
2023/10/21 17:48:04;;;;;;;;;;;16.40;99.90;;;;;;2615381;54;19949;-72
2023/10/21 17:50:34;;;;;;;;;;;16.40;99.90;;;;;;2615480;54;19951;-73
2023/10/21 17:53:04;;;;;;;;;;;16.30;99.90;;;;;;2614221;54;20023;-72
2023/10/21 17:55:38;;;;;;;;;;;16.30;99.90;;;;;;2614676;47;19938;-72
2023/10/21 17:58:13;;;;;;;;;;;16.30;99.90;;;;;;2615562;47;20682;-72
2023/10/21 18:00:42;;;;;;;;;;;16.20;99.90;;;;;;2615199;54;19943;-72
2023/10/21 18:03:12;;;;;;;;;;;16.20;99.90;;;;;;2612843;47;19950;-72
2023/10/21 18:05:43;;;;;;;;;;;16.20;99.90;;;;;;2613902;47;19954;-73
2023/10/21 18:08:13;;;;;;;;;;;16.10;99.90;;;;;;2614823;47;19990;-73
2023/10/21 18:10:42;;;;;;;;;;;16.10;99.90;;;;;;2614925;54;19946;-73
2023/10/21 18:13:15;;;;;;;;;;;16.10;99.90;;;;;;2611190;39;20298;-72
2023/10/21 18:15:45;;;;;;;;;;;16.00;99.90;;;;;;2615355;54;19946;-72
2023/10/21 18:18:14;;;;;;;;;;;16.00;99.90;;;;;;2614924;54;19970;-72
2023/10/21 18:20:44;;;;;;;;;;;16.00;99.90;;;;;;2614320;46;19984;-73
2023/10/21 18:23:14;;;;;;;;;;;15.90;99.90;;;;;;2612755;39;20353;-73
2023/10/21 18:25:43;;;;;;;;;;;15.90;99.90;;;;;;2615318;47;19958;-70
2023/10/21 18:28:19;;;;;;;;;;;15.80;99.90;;;;;;2614772;39;20378;-72
2023/10/21 18:30:49;;;;;;;;;;;15.80;99.90;;;;;;2614147;54;19943;-71
2023/10/21 18:33:19;;;;;;;;;;;15.70;99.90;;;;;;2612406;47;20005;-71
2023/10/21 18:35:49;;;;;;;;;;;15.70;99.90;;;;;;2614232;54;19939;-72
2023/10/21 18:38:19;;;;;;;;;;;15.60;99.90;;;;;;2613618;54;19954;-71
2023/10/21 18:40:50;;;;;;;;;;;15.60;99.90;;;;;;2615703;54;19956;-72
2023/10/21 18:43:22;;;;;;;;;;;15.50;99.90;;;;;;2601538;54;21054;-75
2023/10/21 18:45:52;;;;;;;;;;;15.50;99.90;;;;;;2612759;54;19951;-73
2023/10/21 18:48:22;;;;;;;;;;;15.50;99.90;;;;;;2613351;54;19993;-79
2023/10/21 18:50:58;;;;;;;;;;;15.40;99.90;;;;;;2617971;47;19945;-79
2023/10/21 18:53:28;;;;;;;;;;;15.40;99.90;;;;;;2616115;54;19945;-79
2023/10/21 18:55:58;;;;;;;;;;;15.40;99.90;;;;;;2618950;54;19947;-78
2023/10/21 18:58:31;;;;;;;;;;;15.30;99.90;;;;;;2614795;54;19951;-75
2023/10/21 19:01:01;;;;;;;;;;;15.30;99.90;;;;;;2614779;54;19957;-75
2023/10/21 19:03:31;;;;;;;;;;;15.30;99.90;;;;;;2611626;47;19952;-75
2023/10/21 19:06:00;;;;;;;;;;;15.30;99.90;;;;;;2615339;47;19946;-78
2023/10/21 19:08:31;;;;;;;;;;;15.30;99.90;;;;;;2617930;47;19950;-78
2023/10/21 19:11:01;;;;;;;;;;;15.30;99.90;;;;;;2618394;47;19982;-79
2023/10/21 19:13:33;;;;;;;;;;;15.30;99.90;;;;;;2616775;39;20032;-77
2023/10/21 19:16:03;;;;;;;;;;;15.30;99.90;;;;;;2616664;54;19957;-76
2023/10/21 19:18:33;;;;;;;;;;;15.30;99.90;;;;;;2617216;47;19951;-76
2023/10/21 19:21:06;;;;;;;;;;;15.30;99.90;;;;;;2617214;39;20380;-77
2023/10/21 19:23:36;;;;;;;;;;;15.30;99.90;;;;;;2618936;54;19951;-76
2023/10/21 19:26:06;;;;;;;;;;;15.30;99.90;;;;;;2617336;47;20056;-77
2023/10/21 19:28:39;;;;;;;;;;;15.30;99.90;;;;;;2615545;54;20014;-77
2023/10/21 19:31:11;;;;;;;;;;;15.30;99.90;;;;;;2615873;47;19962;-74
2023/10/21 19:33:42;;;;;;;;;;;15.30;99.90;;;;;;2615056;47;20508;-76
2023/10/21 19:36:12;;;;;;;;;;;15.30;99.90;;;;;;2616734;54;19939;-75
2023/10/21 19:38:42;;;;;;;;;;;15.30;99.90;;;;;;2617725;46;20004;-76
2023/10/21 19:41:14;;;;;;;;;;;15.30;99.90;;;;;;2616223;54;19939;-78
2023/10/21 19:43:46;;;;;;;;;;;15.30;99.90;;;;;;2618267;54;19946;-78
2023/10/21 19:46:16;;;;;;;;;;;15.30;99.90;;;;;;2618841;54;19947;-78
2023/10/21 19:48:46;;;;;;;;;;;15.30;99.90;;;;;;2615965;54;20456;-79
2023/10/21 19:51:16;;;;;;;;;;;15.30;99.90;;;;;;2618434;47;20540;-78
2023/10/21 19:53:46;;;;;;;;;;;15.30;99.90;;;;;;2618058;39;20349;-75
2023/10/21 19:56:15;;;;;;;;;;;15.30;99.90;;;;;;2617106;46;20680;-77
2023/10/21 19:58:47;;;;;;;;;;;15.30;99.90;;;;;;2617977;51;19950;-76
2023/10/21 20:01:17;;;;;;;;;;;15.40;99.90;;;;;;2616576;47;19973;-78
2023/10/21 20:03:47;;;;;;;;;;;15.40;99.90;;;;;;2617965;39;20379;-78
2023/10/21 20:06:17;;;;;;;;;;;15.40;99.90;;;;;;2618416;46;19954;-78
2023/10/21 20:08:48;;;;;;;;;;;15.30;99.90;;;;;;2625619;47;19947;-78
2023/10/21 20:11:17;;;;;;;;;;;15.30;99.90;;;;;;2626151;47;20002;-79
2023/10/21 20:13:50;;;;;;;;;;;15.30;99.90;;;;;;2624374;39;21149;-78
2023/10/21 20:16:21;;;;;;;;;;;15.30;99.90;;;;;;2620720;54;20764;-77
2023/10/21 20:18:51;;;;;;;;;;;15.20;99.90;;;;;;2623232;47;19958;-77
2023/10/21 20:21:21;;;;;;;;;;;15.20;99.90;;;;;;2618612;47;19938;-78
2023/10/21 20:23:50;;;;;;;;;;;15.20;99.90;;;;;;2618954;47;20030;-77
2023/10/21 20:26:20;;;;;;;;;;;15.20;99.90;;;;;;2621040;47;19966;-78
2023/10/21 20:28:52;;;;;;;;;;;15.20;99.90;;;;;;2621257;47;19951;-77
2023/10/21 20:31:22;;;;;;;;;;;15.10;99.90;;;;;;2617544;47;19954;-75
2023/10/21 20:33:52;;;;;;;;;;;15.10;99.90;;;;;;2615957;54;19946;-76
2023/10/21 20:36:22;;;;;;;;;;;15.10;99.90;;;;;;2617245;47;19947;-77
2023/10/21 20:38:52;;;;;;;;;;;15.00;99.90;;;;;;2618822;54;20007;-74
2023/10/21 20:41:22;;;;;;;;;;;15.10;99.90;;;;;;2616538;39;20056;-75
2023/10/21 20:43:54;;;;;;;;;;;15.10;99.90;;;;;;2615514;54;19946;-76
2023/10/21 20:46:24;;;;;;;;;;;15.10;99.90;;;;;;2616351;47;19962;-73
2023/10/21 20:48:54;;;;;;;;;;;15.10;99.90;;;;;;2615075;54;20034;-74
2023/10/21 20:51:23;;;;;;;;;;;15.10;99.90;;;;;;2615941;47;19990;-75
2023/10/21 20:53:53;;;;;;;;;;;15.10;99.90;;;;;;2615964;54;19953;-73
2023/10/21 20:56:24;;;;;;;;;;;15.10;99.90;;;;;;2615304;54;20459;-74
2023/10/21 20:58:57;;;;;;;;;;;15.10;99.90;;;;;;2615688;47;19946;-73